Terminal Aerodrome Forecast
Issued by NWS Northern Indiana

Home | Current Version | Previous Version | Text Only | Print | Product List | Glossary On
Versions: 1 2 3 4 5 6 7 8 9 10
000
FTUS43 KIWX 282300
TAFFWA
TAF
KFWA 282330Z 2900/2924 27004KT P6SM BKN220=

USA.gov is the U.S. government's official web portal to all federal, state and local government web resources and services.